logo tempoitalia

Diretta Meteo Dubai, Emirati Arabi Unitilunedì 31 agosto ore 08:30

Mappa
Sereno 36 °C Sereno 24 Ore: T.min 33 T.max 43
Ponente Sud Km/h 18.5 Punto di rugiada: 15 °C Umidità: 28% Visibilità: 10 Km
Il sole sorge alle: 05:58 Il sole tramonta alle: 18:39
31 Agosto 2026 08:30 tempo osservato: Sereno Sereno 36 28 1001 vento: Nord S 18.5
31 Agosto 2026 08:00 tempo osservato: Sereno Sereno 35 30 1001 vento: Nord S/SO 20.3
31 Agosto 2026 07:30 tempo osservato: Sereno Sereno 34 32 1001 vento: Nord S 18.5
31 Agosto 2026 07:00 tempo osservato: Sereno Sereno 33 36 1001 vento: Nord S/SO 14.8
31 Agosto 2026 06:30 tempo osservato: Sereno Sereno 33 36 1001 vento: Nord S/SO 13
31 Agosto 2026 06:00 tempo osservato: Sereno Sereno 33 38 1001 vento: Nord S/SE 7.4
31 Agosto 2026 05:30 tempo osservato: Sereno Sereno 33 41 1000 vento: Nord S 13
31 Agosto 2026 05:00 tempo osservato: Sereno Sereno 33 43 1000 vento: Nord S 13
31 Agosto 2026 04:30 tempo osservato: Sereno Sereno 34 41 1000 vento: Nord S/SO 11.1
31 Agosto 2026 04:00 tempo osservato: Sereno Sereno 33 43 1000 vento: Nord S 9.3
31 Agosto 2026 03:00 tempo osservato: Sereno Sereno 35 44 1000 vento: Nord S/SE 7.4
31 Agosto 2026 02:30 tempo osservato: Sereno Sereno 35 47 1000 vento: Nord S 7.4
31 Agosto 2026 02:00 tempo osservato: Sereno Sereno 35 47 1000 vento: Nord E/SE 7.4
31 Agosto 2026 01:30 tempo osservato: Sereno Sereno 35 49 1001 vento: Nord E 9.3
31 Agosto 2026 01:00 tempo osservato: Sereno Sereno 35 49 1001 vento: Nord E 11.1
31 Agosto 2026 00:30 tempo osservato: Sereno Sereno 36 50 1001 vento: Nord E 7.4
31 Agosto 2026 00:00 tempo osservato: Sereno Sereno 36 53 1001 vento: Nord N/NO 11.1
30 Agosto 2026 23:30 tempo osservato: Sereno Sereno 36 53 1001 vento: Nord N 5.5
30 Agosto 2026 23:00 tempo osservato: Sereno Sereno 36 47 1001 vento: Nord N 5.5
30 Agosto 2026 22:30 tempo osservato: Sereno Sereno 37 50 1001 vento: Nord S/SO 7.4
30 Agosto 2026 22:00 tempo osservato: Sereno Sereno 37 47 1001 vento: Nord S/SO 7.4
30 Agosto 2026 21:30 tempo osservato: Sereno Sereno 37 39 1000 vento: Nord N 5.5
30 Agosto 2026 21:00 tempo osservato: Sereno Sereno 37 47 1000 vento: Nord N 5.5
30 Agosto 2026 20:30 tempo osservato: Sereno Sereno 37 50 1000 vento: Nord N 7.4
30 Agosto 2026 20:00 tempo osservato: Sereno Sereno 36 56 1000 vento: Nord N/NO 11.1
30 Agosto 2026 19:30 tempo osservato: Sereno Sereno 37 50 1000 vento: Nord N/NO 13
30 Agosto 2026 19:00 tempo osservato: Sereno Sereno 37 50 999 vento: Nord N/NO 14.8
30 Agosto 2026 18:30 tempo osservato: Sereno Sereno 38 45 1000 vento: Nord NO 16.7
30 Agosto 2026 18:00 tempo osservato: Sereno Sereno 39 40 999 vento: Nord NO 18.5
30 Agosto 2026 17:30 tempo osservato: Sereno Sereno 40 35 999 vento: Nord NO 20.3
30 Agosto 2026 17:00 tempo osservato: Sereno Sereno 40 31 999 vento: Nord O/NO 22.2
30 Agosto 2026 16:30 tempo osservato: Sereno Sereno 41 30 999 vento: Nord O/NO 24
30 Agosto 2026 16:00 tempo osservato: Sereno Sereno 41 28 999 vento: Nord O/NO 24
30 Agosto 2026 15:30 tempo osservato: Sereno Sereno 41 33 1000 vento: Nord O/NO 24
30 Agosto 2026 15:00 tempo osservato: Sereno Sereno 42 28 1000 vento: Nord O/NO 24
30 Agosto 2026 14:30 tempo osservato: Sereno Sereno 41 28 1000 vento: Nord O 24
30 Agosto 2026 14:00 tempo osservato: Sereno Sereno 42 26 1001 vento: Nord O/NO 22.2
30 Agosto 2026 13:30 tempo osservato: Sereno Sereno 42 26 1001 vento: Nord O/NO 20.3
30 Agosto 2026 13:00 tempo osservato: Sereno Sereno 42 23 1001 vento: Nord O 18.5
30 Agosto 2026 12:30 tempo osservato: Sereno Sereno 43 22 1001 vento: Nord O/NO 14.8
30 Agosto 2026 12:01 tempo osservato: Sereno Sereno 42 26 1001 vento: Nord N/NO 22.2
30 Agosto 2026 12:00 tempo osservato: Sereno Sereno 43 22 1001 vento: Nord O 13
30 Agosto 2026 11:30 tempo osservato: Sereno Sereno 42 20 1002 vento: Nord SO 14.8
30 Agosto 2026 11:00 tempo osservato: Sereno Sereno 41 23 1002 vento: Nord O/SO 13
30 Agosto 2026 10:30 tempo osservato: Sereno Sereno 40 26 1002 vento: Nord S/SO 13
30 Agosto 2026 10:00 tempo osservato: Sereno Sereno 39 29 1002 vento: Nord S 7.4
30 Agosto 2026 09:30 tempo osservato: Sereno Sereno 37 30 1002 vento: Nord S 14.8
30 Agosto 2026 09:00 tempo osservato: Sereno Sereno 36 32 1002 vento: Nord S 13